createdAt,value
2018-07-22T00:01:05.657Z,70.62
2018-07-22T00:03:34.549Z,70.38
2018-07-22T00:06:03.763Z,70.92
2018-07-22T00:08:32.792Z,70.30
2018-07-22T00:11:01.903Z,70.57
2018-07-22T00:13:30.893Z,71.04
2018-07-22T00:15:59.994Z,70.64
2018-07-22T00:18:28.847Z,71.32
2018-07-22T00:20:57.714Z,71.39
2018-07-22T00:23:26.582Z,71.75
2018-07-22T00:25:55.698Z,71.32
2018-07-22T00:28:25.152Z,71.62
2018-07-22T00:30:53.908Z,72.27
2018-07-22T00:33:23.051Z,72.27
2018-07-22T00:35:51.810Z,72.47
2018-07-22T00:38:21.165Z,71.75
2018-07-22T00:40:50.107Z,72.45
2018-07-22T00:43:18.887Z,72.79
2018-07-22T00:45:48.355Z,72.87
2018-07-22T00:48:17.750Z,73.71
2018-07-22T00:50:47.134Z,73.92
2018-07-22T00:53:16.304Z,74.01
2018-07-22T00:55:45.076Z,73.72
2018-07-22T00:58:14.091Z,74.88
2018-07-22T01:00:43.447Z,75.00
2018-07-22T01:03:12.460Z,75.59
2018-07-22T01:05:42.124Z,75.29
2018-07-22T01:08:10.921Z,76.32
2018-07-22T01:10:40.632Z,76.64
2018-07-22T01:13:10.078Z,77.16
2018-07-22T01:15:44.559Z,76.73
2018-07-22T01:18:13.663Z,77.86
2018-07-22T01:20:43.041Z,77.63
2018-07-22T01:23:12.801Z,77.97
2018-07-22T01:25:41.998Z,78.16
2018-07-22T01:28:11.025Z,78.75
2018-07-22T01:30:39.821Z,79.08
2018-07-22T01:33:08.835Z,79.14
2018-07-22T01:35:38.231Z,79.06
2018-07-22T01:38:07.108Z,79.31
2018-07-22T01:40:36.253Z,79.82
2018-07-22T01:43:05.420Z,79.82
2018-07-22T01:45:34.262Z,80.46
2018-07-22T01:48:03.839Z,80.20
2018-07-22T01:50:32.599Z,80.11
2018-07-22T01:53:01.675Z,79.87
2018-07-22T01:55:30.794Z,80.59
2018-07-22T01:57:59.606Z,81.07
2018-07-22T02:00:28.452Z,81.28
2018-07-22T02:02:59.907Z,82.00
2018-07-22T02:05:30.587Z,81.69
2018-07-22T02:07:59.362Z,81.29
2018-07-22T02:10:28.753Z,82.47
2018-07-22T02:12:57.728Z,82.23
2018-07-22T02:15:26.822Z,82.62
2018-07-22T02:17:55.927Z,82.51
2018-07-22T02:20:25.280Z,82.23
2018-07-22T02:22:54.600Z,81.94
2018-07-22T02:25:23.929Z,82.11
2018-07-22T02:27:53.126Z,82.40
2018-07-22T02:30:22.381Z,82.37
2018-07-22T02:32:51.439Z,82.36
2018-07-22T02:35:20.548Z,82.03
2018-07-22T02:37:49.628Z,82.54
2018-07-22T02:40:18.916Z,82.38
2018-07-22T02:42:48.408Z,82.17
2018-07-22T02:45:17.219Z,82.75
2018-07-22T02:47:46.073Z,82.88
2018-07-22T02:50:14.835Z,82.68
2018-07-22T02:52:43.573Z,82.71
2018-07-22T02:55:12.968Z,82.30
2018-07-22T02:57:41.719Z,82.82
2018-07-22T03:00:11.029Z,82.56
2018-07-22T03:02:41.548Z,82.82
2018-07-22T03:05:10.999Z,82.32
2018-07-22T03:07:40.382Z,81.86
2018-07-22T03:10:09.130Z,81.51
2018-07-22T03:12:38.227Z,82.05
2018-07-22T03:15:07.901Z,81.37
2018-07-22T03:17:36.680Z,81.67
2018-07-22T03:20:05.864Z,81.71
2018-07-22T03:22:34.903Z,81.48
2018-07-22T03:25:03.893Z,81.65
2018-07-22T03:27:32.677Z,81.07
2018-07-22T03:30:01.542Z,80.75
2018-07-22T03:32:30.338Z,81.41
2018-07-22T03:34:59.127Z,81.19
2018-07-22T03:37:27.945Z,81.60
2018-07-22T03:39:57.051Z,80.76
2018-07-22T03:42:25.917Z,81.08
2018-07-22T03:44:55.235Z,80.55
2018-07-22T03:47:24.036Z,80.79
2018-07-22T03:49:53.646Z,81.15
2018-07-22T03:52:22.712Z,81.34
2018-07-22T03:54:51.839Z,82.09
2018-07-22T03:57:20.787Z,82.18
2018-07-22T03:59:49.714Z,82.62
2018-07-22T04:02:18.585Z,84.79
2018-07-22T04:04:47.558Z,84.42
2018-07-22T04:07:16.374Z,84.10
2018-07-22T04:09:46.197Z,84.87
2018-07-22T04:12:15.054Z,85.66
2018-07-22T04:14:43.979Z,87.85
2018-07-22T04:17:13.349Z,87.72
2018-07-22T04:19:42.709Z,88.90
2018-07-22T04:22:11.518Z,89.33
2018-07-22T04:24:40.624Z,90.17
2018-07-22T04:27:09.691Z,89.39
2018-07-22T04:29:38.935Z,90.12
2018-07-22T04:32:08.220Z,90.77
2018-07-22T04:34:37.777Z,90.91
2018-07-22T04:37:06.819Z,90.99
2018-07-22T04:39:35.752Z,90.82
2018-07-22T04:42:04.558Z,90.68
2018-07-22T04:44:33.363Z,90.88
2018-07-22T04:47:02.528Z,90.85
2018-07-22T04:49:32.020Z,91.04
2018-07-22T04:52:00.889Z,92.20
2018-07-22T04:54:30.419Z,92.70
2018-07-22T04:56:59.510Z,93.50
2018-07-22T04:59:28.318Z,93.76
2018-07-22T05:01:57.248Z,94.14
2018-07-22T05:04:26.516Z,93.75
2018-07-22T05:06:55.380Z,94.53
2018-07-22T05:09:24.561Z,94.37
2018-07-22T05:11:54.041Z,93.77
2018-07-22T05:14:22.856Z,93.84
2018-07-22T05:16:52.432Z,94.04
2018-07-22T05:19:21.768Z,94.02
2018-07-22T05:21:50.878Z,94.08
2018-07-22T05:24:19.994Z,92.82
2018-07-22T05:26:49.000Z,92.85
2018-07-22T05:29:17.887Z,91.84
2018-07-22T05:31:46.612Z,91.27
2018-07-22T05:34:16.182Z,90.95
2018-07-22T05:36:45.555Z,89.76
2018-07-22T05:39:14.752Z,89.87
2018-07-22T05:41:44.100Z,89.21
2018-07-22T05:44:12.867Z,88.94
2018-07-22T05:46:42.073Z,88.20
2018-07-22T05:49:10.980Z,88.58
2018-07-22T05:51:39.793Z,87.26
2018-07-22T05:54:08.924Z,86.96
2018-07-22T05:56:38.452Z,84.54
2018-07-22T05:59:07.869Z,82.28
2018-07-22T06:01:36.701Z,81.23
2018-07-22T06:04:05.434Z,78.99
2018-07-22T06:06:34.758Z,77.35
2018-07-22T06:09:04.120Z,75.13
2018-07-22T06:11:33.015Z,73.99
2018-07-22T06:14:02.155Z,74.10
2018-07-22T06:16:31.047Z,74.09
2018-07-22T06:19:00.337Z,73.81
2018-07-22T06:21:29.328Z,72.52
2018-07-22T06:23:58.260Z,72.87
2018-07-22T06:26:27.047Z,73.71
2018-07-22T06:28:56.108Z,73.60
2018-07-22T06:31:25.203Z,74.26
2018-07-22T06:33:54.567Z,73.88
2018-07-22T06:36:23.717Z,73.74
2018-07-22T06:38:52.713Z,73.70
2018-07-22T06:41:21.495Z,73.59
2018-07-22T06:43:50.488Z,73.67
2018-07-22T06:46:19.258Z,74.64
2018-07-22T06:48:48.281Z,74.75
2018-07-22T06:51:17.660Z,74.35
2018-07-22T06:53:46.988Z,74.10
2018-07-22T06:56:15.821Z,73.88
2018-07-22T06:58:44.518Z,74.41
2018-07-22T07:01:13.748Z,74.76
2018-07-22T07:03:43.030Z,74.21
2018-07-22T07:06:11.989Z,74.27
2018-07-22T07:08:41.057Z,74.09
2018-07-22T07:11:09.799Z,73.58
2018-07-22T07:13:38.933Z,73.21
2018-07-22T07:16:08.681Z,71.64
2018-07-22T07:18:38.174Z,71.21
2018-07-22T07:21:07.595Z,70.53
2018-07-22T07:23:36.677Z,69.43
2018-07-22T07:26:06.050Z,68.00
2018-07-22T07:28:34.768Z,66.27
2018-07-22T07:31:03.535Z,65.40
2018-07-22T07:33:32.504Z,64.38
2018-07-22T07:36:01.614Z,63.97
2018-07-22T07:38:30.354Z,63.80
2018-07-22T07:40:59.116Z,63.44
2018-07-22T07:43:28.503Z,62.36
2018-07-22T07:45:57.542Z,62.02
2018-07-22T07:48:26.692Z,62.47
2018-07-22T07:50:55.966Z,61.43
2018-07-22T07:53:25.164Z,61.60
2018-07-22T07:55:54.194Z,60.98
2018-07-22T07:58:23.563Z,61.19
2018-07-22T08:00:53.378Z,60.90
2018-07-22T08:03:22.551Z,60.81
2018-07-22T08:05:51.956Z,59.76
2018-07-22T08:08:20.705Z,59.74
2018-07-22T08:10:50.311Z,59.71
2018-07-22T08:13:19.657Z,58.59
2018-07-22T08:15:48.988Z,57.69
2018-07-22T08:18:18.059Z,57.87
2018-07-22T08:20:47.051Z,57.23
2018-07-22T08:23:16.492Z,56.25
2018-07-22T08:25:46.001Z,55.23
2018-07-22T08:28:16.379Z,54.80
2018-07-22T08:30:45.392Z,53.98
2018-07-22T08:33:14.338Z,53.61
2018-07-22T08:35:43.557Z,53.30
2018-07-22T08:38:12.570Z,54.86
2018-07-22T08:40:41.345Z,54.08
2018-07-22T08:43:10.422Z,53.84
2018-07-22T08:45:39.763Z,53.29
2018-07-22T08:48:08.455Z,53.09
2018-07-22T08:50:37.791Z,53.80
2018-07-22T08:53:06.885Z,52.19
2018-07-22T08:55:35.628Z,52.90
2018-07-22T08:58:04.391Z,52.19
2018-07-22T09:00:33.410Z,52.87
2018-07-22T09:03:02.882Z,52.88
2018-07-22T09:05:32.169Z,52.25
2018-07-22T09:08:01.223Z,52.79
2018-07-22T09:10:30.338Z,53.37
2018-07-22T09:12:59.142Z,52.28
2018-07-22T09:15:28.239Z,51.81
2018-07-22T09:17:57.264Z,52.07
2018-07-22T09:20:26.025Z,51.01
2018-07-22T09:22:54.761Z,51.53
2018-07-22T09:25:24.182Z,51.99
2018-07-22T09:27:53.305Z,51.39
2018-07-22T09:30:22.419Z,49.99
2018-07-22T09:32:51.135Z,49.40
2018-07-22T09:35:20.116Z,48.62
2018-07-22T09:37:49.166Z,49.44
2018-07-22T09:40:18.234Z,49.64
2018-07-22T09:42:47.055Z,48.81
2018-07-22T09:45:16.141Z,49.60
2018-07-22T09:47:44.973Z,49.25
2018-07-22T09:50:14.306Z,47.75
2018-07-22T09:52:43.579Z,48.65
2018-07-22T09:55:12.863Z,48.11
2018-07-22T09:57:41.979Z,47.88
2018-07-22T10:00:10.805Z,46.83
2018-07-22T10:02:39.905Z,47.35
2018-07-22T10:05:08.678Z,45.88
2018-07-22T10:07:39.652Z,46.15
2018-07-22T10:10:08.472Z,45.67
2018-07-22T10:12:40.590Z,46.34
2018-07-22T10:15:10.290Z,47.47
2018-07-22T10:17:39.481Z,46.76
2018-07-22T10:20:08.282Z,44.84
2018-07-22T10:22:37.581Z,45.16
2018-07-22T10:25:10.443Z,45.22
2018-07-22T10:27:39.691Z,45.53
2018-07-22T10:30:09.131Z,45.55
2018-07-22T10:32:43.114Z,43.89
2018-07-22T10:35:12.881Z,43.12
2018-07-22T10:37:41.712Z,42.77
2018-07-22T10:40:10.770Z,44.15
2018-07-22T10:42:39.767Z,42.98
2018-07-22T10:45:08.794Z,43.29
2018-07-22T10:47:38.164Z,43.74
2018-07-22T10:50:08.381Z,42.57
2018-07-22T10:52:37.297Z,42.52
2018-07-22T10:55:06.108Z,42.15
2018-07-22T10:57:35.154Z,41.99
2018-07-22T11:00:04.451Z,42.04
2018-07-22T11:02:33.288Z,42.15
2018-07-22T11:05:02.054Z,41.84
2018-07-22T11:07:31.360Z,42.48
2018-07-22T11:10:00.187Z,41.46
2018-07-22T11:12:29.297Z,40.64
2018-07-22T11:14:59.781Z,41.77
2018-07-22T11:17:28.632Z,41.60
2018-07-22T11:19:57.627Z,41.44
2018-07-22T11:22:26.668Z,41.45
2018-07-22T11:24:55.949Z,40.91
2018-07-22T11:27:25.514Z,40.96
2018-07-22T11:29:54.281Z,41.26
2018-07-22T11:32:23.313Z,42.38
2018-07-22T11:34:53.512Z,43.22
2018-07-22T11:37:24.163Z,42.88
2018-07-22T11:39:54.224Z,43.37
2018-07-22T11:42:26.395Z,42.62
2018-07-22T11:44:55.455Z,42.90
2018-07-22T11:47:24.834Z,42.53
2018-07-22T11:49:53.973Z,42.33
2018-07-22T11:52:23.056Z,41.70
2018-07-22T11:54:51.879Z,42.22
2018-07-22T11:57:20.931Z,44.08
2018-07-22T11:59:50.787Z,43.35
2018-07-22T12:02:19.683Z,43.38
2018-07-22T12:04:48.734Z,43.29
2018-07-22T12:07:17.847Z,42.54
2018-07-22T12:09:46.677Z,42.63
2018-07-22T12:12:16.230Z,42.20
2018-07-22T12:14:45.209Z,42.39
2018-07-22T12:17:14.236Z,42.22
2018-07-22T12:19:43.019Z,42.67
2018-07-22T12:22:16.833Z,42.69
2018-07-22T12:24:46.382Z,42.46
2018-07-22T12:27:15.206Z,42.22
2018-07-22T12:29:44.387Z,42.09
2018-07-22T12:32:13.454Z,41.80
2018-07-22T12:34:42.586Z,41.87
2018-07-22T12:37:11.391Z,42.73
2018-07-22T12:39:41.296Z,42.00
2018-07-22T12:42:10.406Z,41.63
2018-07-22T12:44:44.547Z,41.13
2018-07-22T12:47:16.148Z,41.34
2018-07-22T12:49:45.572Z,41.42
2018-07-22T12:52:14.357Z,42.27
2018-07-22T12:54:43.594Z,41.99
2018-07-22T12:57:12.665Z,42.08
2018-07-22T12:59:42.014Z,40.93
2018-07-22T13:02:11.125Z,40.74
2018-07-22T13:04:40.508Z,41.92
2018-07-22T13:07:12.120Z,41.80
2018-07-22T13:09:41.586Z,41.01
2018-07-22T13:12:10.590Z,41.56
2018-07-22T13:14:39.692Z,40.79
2018-07-22T13:17:12.176Z,40.98
2018-07-22T13:19:41.238Z,40.85
2018-07-22T13:22:09.955Z,40.86
2018-07-22T13:24:39.000Z,41.82
2018-07-22T13:27:08.098Z,41.76
2018-07-22T13:29:36.916Z,42.30
2018-07-22T13:32:06.418Z,42.11
2018-07-22T13:34:35.460Z,43.19
2018-07-22T13:37:04.733Z,42.83
2018-07-22T13:39:33.856Z,42.97
2018-07-22T13:42:04.374Z,42.76
2018-07-22T13:44:33.282Z,41.41
2018-07-22T13:47:02.190Z,40.68
2018-07-22T13:49:31.113Z,39.44
2018-07-22T13:52:00.218Z,38.75
2018-07-22T13:54:29.179Z,39.45
2018-07-22T13:56:58.575Z,40.13
2018-07-22T13:59:27.392Z,40.38
2018-07-22T14:01:56.469Z,40.45
2018-07-22T14:04:25.296Z,40.51
2018-07-22T14:06:54.108Z,39.72
2018-07-22T14:09:23.248Z,40.26
2018-07-22T14:11:52.428Z,41.09
2018-07-22T14:14:21.843Z,41.05
2018-07-22T14:16:50.654Z,41.65
2018-07-22T14:19:19.611Z,41.63
2018-07-22T14:21:48.521Z,41.03
2018-07-22T14:24:17.641Z,41.13
2018-07-22T14:26:46.358Z,41.58
2018-07-22T14:29:15.451Z,40.66
2018-07-22T14:31:44.222Z,40.12
2018-07-22T14:34:13.258Z,40.44
2018-07-22T14:36:42.426Z,40.38
2018-07-22T14:39:12.974Z,38.83
2018-07-22T14:41:42.625Z,39.93
2018-07-22T14:44:11.401Z,39.20
2018-07-22T14:46:40.142Z,39.89
2018-07-22T14:49:10.237Z,40.49
2018-07-22T14:51:39.664Z,40.23
2018-07-22T14:54:08.456Z,41.16
2018-07-22T14:56:37.212Z,41.62
2018-07-22T14:59:06.092Z,40.35
2018-07-22T15:01:35.421Z,40.26
2018-07-22T15:04:04.507Z,40.01
2018-07-22T15:06:33.540Z,40.96
2018-07-22T15:09:02.954Z,40.21
2018-07-22T15:11:31.943Z,40.39
2018-07-22T15:14:01.270Z,40.84
2018-07-22T15:16:30.348Z,41.58
2018-07-22T15:18:59.170Z,41.57
2018-07-22T15:21:27.862Z,41.15
2018-07-22T15:23:56.617Z,41.05
2018-07-22T15:26:25.380Z,40.70
2018-07-22T15:28:54.918Z,41.54
2018-07-22T15:31:23.666Z,40.73
2018-07-22T15:33:52.804Z,40.54
2018-07-22T15:36:22.238Z,40.81
2018-07-22T15:38:50.979Z,40.47
2018-07-22T15:41:19.708Z,40.86
2018-07-22T15:43:48.732Z,40.57
2018-07-22T15:46:17.871Z,39.97
2018-07-22T15:48:47.303Z,40.31
2018-07-22T15:51:16.326Z,40.09
2018-07-22T15:53:45.642Z,39.90
2018-07-22T15:56:14.799Z,40.37
2018-07-22T15:58:43.883Z,39.70
2018-07-22T16:01:13.953Z,39.19
2018-07-22T16:03:42.712Z,38.73
2018-07-22T16:06:11.849Z,38.45
2018-07-22T16:08:40.996Z,37.76
2018-07-22T16:11:10.409Z,37.99
2018-07-22T16:13:39.285Z,38.22
2018-07-22T16:16:08.276Z,38.78
2018-07-22T16:18:37.047Z,38.46
2018-07-22T16:21:06.473Z,39.61
2018-07-22T16:23:35.222Z,37.84
2018-07-22T16:26:04.419Z,38.71
2018-07-22T16:28:33.171Z,39.23
2018-07-22T16:31:01.968Z,38.91
2018-07-22T16:33:31.026Z,38.48
2018-07-22T16:36:00.082Z,39.11
2018-07-22T16:38:28.803Z,38.71
2018-07-22T16:40:58.226Z,38.78
2018-07-22T16:43:27.254Z,39.74
2018-07-22T16:45:56.010Z,39.96
2018-07-22T16:48:24.900Z,39.46
2018-07-22T16:50:53.643Z,39.80
2018-07-22T16:53:22.805Z,38.74
2018-07-22T16:55:51.724Z,39.31
2018-07-22T16:58:20.478Z,39.26
2018-07-22T17:00:49.241Z,39.95
2018-07-22T17:03:18.140Z,39.76
2018-07-22T17:05:46.888Z,40.96
2018-07-22T17:08:15.678Z,40.18
2018-07-22T17:10:44.473Z,40.73
2018-07-22T17:13:13.538Z,40.60
2018-07-22T17:15:42.430Z,41.18
2018-07-22T17:18:11.137Z,40.60
2018-07-22T17:20:39.979Z,40.53
2018-07-22T17:23:08.783Z,40.82
2018-07-22T17:25:37.885Z,41.85
2018-07-22T17:28:06.686Z,42.00
2018-07-22T17:30:35.753Z,42.23
2018-07-22T17:33:04.815Z,42.16
2018-07-22T17:35:33.782Z,41.95
2018-07-22T17:38:02.541Z,42.85
2018-07-22T17:40:32.101Z,43.34
2018-07-22T17:43:01.054Z,44.84
2018-07-22T17:45:30.141Z,44.87
2018-07-22T17:47:59.145Z,45.18
2018-07-22T17:50:28.449Z,45.17
2018-07-22T17:52:57.264Z,45.53
2018-07-22T17:55:26.254Z,45.89
2018-07-22T17:57:54.976Z,47.05
2018-07-22T18:00:23.757Z,46.88
2018-07-22T18:03:33.757Z,47.30
2018-07-22T18:06:02.940Z,47.60
2018-07-22T18:08:32.568Z,47.38
2018-07-22T18:11:01.627Z,47.99
2018-07-22T18:13:30.931Z,48.51
2018-07-22T18:16:00.044Z,48.32
2018-07-22T18:18:29.318Z,48.93
2018-07-22T18:20:58.577Z,49.50
2018-07-22T18:23:27.934Z,48.93
2018-07-22T18:25:57.252Z,49.44
2018-07-22T18:28:27.475Z,49.84
2018-07-22T18:30:56.228Z,50.02
2018-07-22T18:33:24.975Z,50.38
2018-07-22T18:35:54.108Z,50.45
2018-07-22T18:38:22.875Z,50.39
2018-07-22T18:40:51.884Z,50.69
2018-07-22T18:43:20.897Z,51.06
2018-07-22T18:45:49.861Z,50.97
2018-07-22T18:48:19.324Z,50.85
2018-07-22T18:50:48.015Z,51.43
2018-07-22T18:53:16.725Z,52.45
2018-07-22T18:55:45.510Z,52.77
2018-07-22T18:58:14.517Z,52.96
2018-07-22T19:00:43.483Z,53.04
2018-07-22T19:03:12.227Z,53.28
2018-07-22T19:05:41.703Z,52.69
2018-07-22T19:08:11.023Z,53.16
2018-07-22T19:10:39.784Z,52.81
2018-07-22T19:13:08.878Z,53.62
2018-07-22T19:15:40.315Z,53.81
2018-07-22T19:18:09.875Z,53.45
2018-07-22T19:20:38.917Z,54.26
2018-07-22T19:23:08.425Z,53.83
2018-07-22T19:25:37.202Z,54.34
2018-07-22T19:28:07.044Z,54.54
2018-07-22T19:30:36.332Z,53.74
2018-07-22T19:33:05.062Z,54.92
2018-07-22T19:35:34.084Z,55.02
2018-07-22T19:38:03.129Z,55.53
2018-07-22T19:40:32.465Z,55.36
2018-07-22T19:43:01.834Z,55.65
2018-07-22T19:45:31.131Z,56.02
2018-07-22T19:48:00.802Z,56.74
2018-07-22T19:50:29.548Z,56.52
2018-07-22T19:52:58.325Z,56.64
2018-07-22T19:55:27.437Z,57.05
2018-07-22T19:57:56.524Z,57.60
2018-07-22T20:00:26.343Z,57.29
2018-07-22T20:02:55.097Z,58.19
2018-07-22T20:05:24.498Z,57.71
2018-07-22T20:07:53.741Z,58.08
2018-07-22T20:10:23.322Z,58.57
2018-07-22T20:12:52.402Z,58.86
2018-07-22T20:15:21.395Z,58.97
2018-07-22T20:17:50.241Z,58.85
2018-07-22T20:20:19.100Z,58.68
2018-07-22T20:22:52.170Z,59.29
2018-07-22T20:25:21.874Z,59.45
2018-07-22T20:27:50.633Z,59.35
2018-07-22T20:30:19.748Z,59.50
2018-07-22T20:32:48.908Z,60.14
2018-07-22T20:35:17.642Z,60.32
2018-07-22T20:37:46.611Z,60.01
2018-07-22T20:40:15.435Z,60.52
2018-07-22T20:42:45.025Z,60.74
2018-07-22T20:45:14.150Z,60.32
2018-07-22T20:47:44.107Z,60.85
2018-07-22T20:50:13.162Z,60.95
2018-07-22T20:52:42.263Z,61.01
2018-07-22T20:55:10.975Z,61.19
2018-07-22T20:57:39.994Z,61.37
2018-07-22T21:00:08.732Z,61.18
2018-07-22T21:02:37.484Z,61.60
2018-07-22T21:05:06.784Z,60.83
2018-07-22T21:07:35.792Z,61.17
2018-07-22T21:10:04.580Z,61.22
2018-07-22T21:12:47.604Z,61.31
2018-07-22T21:15:17.311Z,61.39
2018-07-22T21:17:47.349Z,61.31
2018-07-22T21:20:17.288Z,60.89
2018-07-22T21:22:46.061Z,61.39
2018-07-22T21:25:15.374Z,60.69
2018-07-22T21:27:44.284Z,60.88
2018-07-22T21:30:14.201Z,61.14
2018-07-22T21:32:42.922Z,61.49
2018-07-22T21:35:11.680Z,60.97
2018-07-22T21:37:40.641Z,61.28
2018-07-22T21:40:09.774Z,61.76
2018-07-22T21:42:38.868Z,61.87
2018-07-22T21:45:08.716Z,61.29
2018-07-22T21:47:37.883Z,61.99
2018-07-22T21:50:07.663Z,61.90
2018-07-22T21:52:36.451Z,61.87
2018-07-22T21:55:06.216Z,61.32
2018-07-22T21:57:35.045Z,61.21
2018-07-22T22:00:03.955Z,61.41
2018-07-22T22:02:34.745Z,61.96
2018-07-22T22:05:06.154Z,61.38
2018-07-22T22:07:35.718Z,61.55
2018-07-22T22:10:05.542Z,62.30
2018-07-22T22:12:35.494Z,61.72
2018-07-22T22:15:05.254Z,62.58
2018-07-22T22:17:35.463Z,62.76
2018-07-22T22:20:05.155Z,62.65
2018-07-22T22:22:34.139Z,62.36
2018-07-22T22:25:02.930Z,62.87
2018-07-22T22:27:31.890Z,63.14
2018-07-22T22:30:00.607Z,62.40
2018-07-22T22:32:29.638Z,62.38
2018-07-22T22:34:58.952Z,62.99
2018-07-22T22:37:27.666Z,62.75
2018-07-22T22:39:56.740Z,62.66
2018-07-22T22:42:25.773Z,62.87
2018-07-22T22:44:55.056Z,62.53
2018-07-22T22:47:32.483Z,62.61
2018-07-22T22:50:01.839Z,63.19
2018-07-22T22:52:30.893Z,62.99
2018-07-22T22:54:59.669Z,62.81
2018-07-22T22:57:28.895Z,63.06
2018-07-22T22:59:57.654Z,63.27
2018-07-22T23:02:32.253Z,63.95
2018-07-22T23:05:00.992Z,63.51
2018-07-22T23:07:30.263Z,64.21
2018-07-22T23:09:59.731Z,64.32
2018-07-22T23:12:28.829Z,64.46
2018-07-22T23:14:57.823Z,64.25
2018-07-22T23:17:26.597Z,64.30
2018-07-22T23:19:55.871Z,64.25
2018-07-22T23:22:25.159Z,64.69
2018-07-22T23:24:53.982Z,64.45
2018-07-22T23:27:22.748Z,64.81
2018-07-22T23:29:51.854Z,64.33
2018-07-22T23:32:21.196Z,64.56
2018-07-22T23:34:50.353Z,64.62
2018-07-22T23:37:19.131Z,65.12
2018-07-22T23:39:48.582Z,64.59
2018-07-22T23:42:17.370Z,65.13
2018-07-22T23:44:46.097Z,65.36
2018-07-22T23:47:14.873Z,65.02
2018-07-22T23:49:44.004Z,65.40
2018-07-22T23:52:13.302Z,65.32
2018-07-22T23:54:42.656Z,65.38
2018-07-22T23:57:11.358Z,66.24
2018-07-22T23:59:40.171Z,66.39
